Esquina — 2DOU6 — position and weather

sailwx.info

Track history (hours):
 
Tides and Currents Weather Stations Pressure Air Temp Water Temp Dewpoint Dewpoint Depression Visibility Wind Speed Wind Dir Waves Ship Positions

Esquina

Last reported at 2017-Jun-22 14:12 UTC. Time now 2017-Jun-27 10:45 UTC.
Position N 44°40' W 001°09'.

Type: Other ship. MMSI: 235080801.

Date/timePositionNaut miles runAvg speedWind from/ knotsBaromVisibWave heightAir tempDewpointWater temp
2017-Jun-22 14:12N 44°40' W 001°09'1 1.1
2017-Jun-22 13:30N 44°40' W 001°08'1 0.2
2017-Jun-22 09:41N 44°40' W 001°09'1 4.0
2017-Jun-22 09:30N 44°40' W 001°10'1 1.0
2017-Jun-22 08:59N 44°40' W 001°09'0 0.4
2017-Jun-22 08:16N 44°40' W 001°09'0 0.0
2017-Jun-22 07:32N 44°40' W 001°09'0 4.0
2017-Jun-22 07:29N 44°40' W 001°09'0 0.2
2017-Jun-22 06:40N 44°40' W 001°09'1 4.6
2017-Jun-22 06:30N 44°40' W 001°10'3 6.5
2017-Jun-22 06:00N 44°39' W 001°14'2 4.0
2017-Jun-22 05:31N 44°37' W 001°15'3 5.9
2017-Jun-22 05:00N 44°40' W 001°13'2 4.5
2017-Jun-22 04:31N 44°40' W 001°10'1 0.1
2017-Jun-21 15:16N 44°40' W 001°09'0 0.4
2017-Jun-21 14:54N 44°40' W 001°09'4 9.6
2017-Jun-21 14:30N 44°38' W 001°14'4013.3
2017-Jun-21 11:29N 43°59' W 001°24'19 4.7
2017-Jun-21 07:34N 43°40' W 001°27'0 0.2
2017-Jun-21 07:30N 43°40' W 001°27'0 0.5
2017-Jun-21 06:40N 43°40' W 001°27'1 0.7
2017-Jun-21 05:56N 43°39' W 001°27'0 0.1
2017-Jun-21 04:45N 43°39' W 001°27'0 0.0
2017-Jun-20 16:31N 43°39' W 001°27'1 9.5
2017-Jun-20 16:27N 43°40' W 001°27'  
Track history (hours):
 
Tides and Currents Weather Stations Pressure Air Temp Water Temp Dewpoint Dewpoint Depression Visibility Wind Speed Wind Dir Waves Ship Positions

Esquina

Last reported at 2017-Jun-22 14:12 UTC. Time now 2017-Jun-27 10:45 UTC.
Position N 44°40' W 001°09'.

Type: Other ship. MMSI: 235080801.

Date/timePositionNaut miles runAvg speedWind from/ knotsBaromVisibWave heightAir tempDewpointWater temp
2017-Jun-22 14:12N 44°40' W 001°09'1 1.1
2017-Jun-22 13:30N 44°40' W 001°08'1 0.2
2017-Jun-22 09:41N 44°40' W 001°09'1 4.0
2017-Jun-22 09:30N 44°40' W 001°10'1 1.0
2017-Jun-22 08:59N 44°40' W 001°09'0 0.4
2017-Jun-22 08:16N 44°40' W 001°09'0 0.0
2017-Jun-22 07:32N 44°40' W 001°09'0 4.0
2017-Jun-22 07:29N 44°40' W 001°09'0 0.2
2017-Jun-22 06:40N 44°40' W 001°09'1 4.6
2017-Jun-22 06:30N 44°40' W 001°10'3 6.5
2017-Jun-22 06:00N 44°39' W 001°14'2 4.0
2017-Jun-22 05:31N 44°37' W 001°15'3 5.9
2017-Jun-22 05:00N 44°40' W 001°13'2 4.5
2017-Jun-22 04:31N 44°40' W 001°10'1 0.1
2017-Jun-21 15:16N 44°40' W 001°09'0 0.4
2017-Jun-21 14:54N 44°40' W 001°09'4 9.6
2017-Jun-21 14:30N 44°38' W 001°14'4013.3
2017-Jun-21 11:29N 43°59' W 001°24'19 4.7
2017-Jun-21 07:34N 43°40' W 001°27'0 0.2
2017-Jun-21 07:30N 43°40' W 001°27'0 0.5
2017-Jun-21 06:40N 43°40' W 001°27'1 0.7
2017-Jun-21 05:56N 43°39' W 001°27'0 0.1
2017-Jun-21 04:45N 43°39' W 001°27'0 0.0
2017-Jun-20 16:31N 43°39' W 001°27'1 9.5
2017-Jun-20 16:27N 43°40' W 001°27'  

Dump ship's entire track history